createdAt,value
2022-09-05T00:00:19.700Z,0.60
2022-09-05T00:02:58.713Z,0.70
2022-09-05T00:05:57.573Z,0.70
2022-09-05T00:08:37.973Z,0.80
2022-09-05T00:11:42.604Z,0.60
2022-09-05T00:14:34.289Z,0.67
2022-09-05T00:17:18.683Z,0.80
2022-09-05T00:24:21.632Z,0.80
2022-09-05T00:24:29.486Z,0.70
2022-09-05T00:26:12.888Z,0.87
2022-09-05T00:28:49.773Z,0.70
2022-09-05T00:31:53.796Z,0.80
2022-09-05T00:34:48.182Z,0.60
2022-09-05T00:37:28.504Z,0.80
2022-09-05T00:40:17.781Z,0.70
2022-09-05T00:42:50.164Z,0.70
2022-09-05T00:45:25.323Z,0.80
2022-09-05T00:48:03.109Z,0.70
2022-09-05T00:50:40.118Z,0.70
2022-09-05T00:53:15.653Z,0.80
2022-09-05T00:55:58.969Z,0.80
2022-09-05T00:58:55.391Z,0.80
2022-09-05T01:01:38.333Z,0.83
2022-09-05T01:04:24.728Z,1.00
2022-09-05T01:07:29.805Z,1.00
2022-09-05T01:10:08.954Z,1.00
2022-09-05T01:12:52.905Z,0.97
2022-09-05T01:15:32.125Z,0.80
2022-09-05T01:18:15.423Z,0.80
2022-09-05T01:21:00.678Z,0.77
2022-09-05T01:23:54.945Z,0.63
2022-09-05T01:26:58.447Z,0.87
2022-09-05T01:29:36.106Z,0.80
2022-09-05T01:32:18.111Z,0.90
2022-09-05T01:34:57.866Z,0.67
2022-09-05T01:37:34.291Z,0.80
2022-09-05T01:40:20.603Z,0.70
2022-09-05T01:43:02.550Z,0.80
2022-09-05T01:45:47.640Z,0.90
2022-09-05T01:48:31.291Z,0.80
2022-09-05T01:51:28.644Z,0.87
2022-09-05T01:54:19.835Z,0.90
2022-09-05T01:57:04.341Z,0.80
2022-09-05T01:59:42.243Z,0.90
2022-09-05T02:02:33.675Z,0.80
2022-09-05T02:05:15.130Z,0.77
2022-09-05T02:08:14.883Z,0.80
2022-09-05T02:11:02.935Z,0.87
2022-09-05T02:13:44.979Z,0.70
2022-09-05T02:16:22.300Z,0.80
2022-09-05T02:19:01.169Z,0.93
2022-09-05T02:21:56.309Z,0.87
2022-09-05T02:24:29.162Z,0.90
2022-09-05T02:27:47.603Z,0.90
2022-09-05T02:30:09.917Z,0.90
2022-09-05T02:32:49.226Z,0.93
2022-09-05T02:35:28.238Z,0.90
2022-09-05T02:39:58.987Z,0.77
2022-09-05T02:45:17.001Z,0.83
2022-09-05T02:45:23.977Z,0.70
2022-09-05T02:46:50.779Z,0.73
2022-09-05T02:50:34.771Z,0.90
2022-09-05T02:57:26.978Z,0.80
2022-09-05T02:57:41.357Z,0.90
2022-09-05T02:58:22.039Z,0.83
2022-09-05T03:01:00.247Z,0.90
2022-09-05T03:03:35.672Z,1.17
2022-09-05T03:06:32.141Z,0.80
2022-09-05T03:09:31.218Z,1.10
2022-09-05T03:12:46.362Z,0.90
2022-09-05T03:15:47.667Z,1.20
2022-09-05T03:18:37.613Z,0.80
2022-09-05T03:21:39.578Z,1.00
2022-09-05T03:24:31.958Z,1.20
2022-09-05T03:27:30.316Z,1.00
2022-09-05T03:30:07.194Z,1.00
2022-09-05T03:33:03.168Z,1.10
2022-09-05T03:36:04.254Z,1.30
2022-09-05T03:39:16.024Z,1.13
2022-09-05T03:42:04.243Z,1.07
2022-09-05T03:44:58.129Z,1.10
2022-09-05T03:47:44.377Z,0.97
2022-09-05T03:53:31.009Z,1.00
2022-09-05T03:57:10.632Z,1.20
2022-09-05T03:57:26.848Z,0.90
2022-09-05T04:00:04.459Z,1.07
2022-09-05T04:07:27.002Z,1.20
2022-09-05T04:08:17.303Z,1.10
2022-09-05T04:08:34.068Z,1.17
2022-09-05T04:11:14.883Z,1.10
2022-09-05T04:13:49.637Z,1.17
2022-09-05T04:16:24.699Z,1.00
2022-09-05T04:18:55.868Z,1.20
2022-09-05T04:21:28.328Z,1.20
2022-09-05T04:24:06.688Z,1.10
2022-09-05T04:26:55.953Z,1.20
2022-09-05T04:29:29.477Z,1.13
2022-09-05T04:32:18.105Z,1.17
2022-09-05T04:35:05.512Z,1.20
2022-09-05T04:37:47.991Z,1.20
2022-09-05T04:40:51.169Z,1.00
2022-09-05T04:43:31.488Z,1.30
2022-09-05T04:46:09.730Z,1.10
2022-09-05T04:48:47.229Z,0.90
2022-09-05T04:51:44.067Z,1.10
2022-09-05T04:54:30.314Z,0.80
2022-09-05T04:57:13.929Z,1.00
2022-09-05T05:05:30.479Z,1.10
2022-09-05T05:06:08.548Z,1.00
2022-09-05T05:06:09.766Z,1.13
2022-09-05T05:08:39.213Z,1.00
2022-09-05T05:16:38.365Z,0.90
2022-09-05T05:17:54.027Z,0.93
2022-09-05T05:18:08.634Z,1.03
2022-09-05T05:20:39.267Z,1.20
2022-09-05T05:22:47.369Z,1.13
2022-09-05T05:25:15.364Z,1.00
2022-09-05T05:27:47.533Z,1.07
2022-09-05T05:30:26.684Z,1.20
2022-09-05T05:32:56.209Z,1.30
2022-09-05T05:35:29.597Z,1.10
2022-09-05T05:38:19.997Z,1.10
2022-09-05T05:40:54.195Z,1.10
2022-09-05T05:43:27.315Z,1.10
2022-09-05T05:46:00.072Z,1.10
2022-09-05T05:48:36.706Z,1.00
2022-09-05T05:51:36.407Z,1.00
2022-09-05T05:54:28.007Z,1.10
2022-09-05T05:57:23.687Z,1.20
2022-09-05T06:00:04.348Z,1.10
2022-09-05T06:03:25.634Z,0.93
2022-09-05T06:06:09.515Z,1.20
2022-09-05T06:12:21.269Z,1.03
2022-09-05T06:15:02.059Z,1.10
2022-09-05T06:15:30.206Z,1.10
2022-09-05T06:18:45.610Z,1.20
2022-09-05T06:22:06.057Z,1.13
2022-09-05T06:25:21.913Z,1.20
2022-09-05T06:28:18.343Z,1.27
2022-09-05T06:30:57.639Z,1.37
2022-09-05T06:33:55.496Z,1.20
2022-09-05T06:36:35.931Z,1.20
2022-09-05T06:39:11.210Z,1.20
2022-09-05T06:41:50.370Z,1.20
2022-09-05T06:44:44.087Z,1.53
2022-09-05T06:47:24.045Z,1.40
2022-09-05T06:50:24.303Z,1.63
2022-09-05T06:53:19.894Z,1.60
2022-09-05T06:56:08.557Z,1.90
2022-09-05T06:59:12.633Z,1.93
2022-09-05T07:02:00.520Z,2.10
2022-09-05T07:05:37.844Z,1.90
2022-09-05T07:07:33.905Z,2.93
2022-09-05T07:10:22.377Z,3.10
2022-09-05T07:13:05.313Z,3.00
2022-09-05T07:15:41.887Z,3.20
2022-09-05T07:18:22.175Z,3.20
2022-09-05T07:21:17.104Z,2.90
2022-09-05T07:24:09.549Z,2.93
2022-09-05T07:26:51.684Z,3.23
2022-09-05T07:29:25.088Z,3.07
2022-09-05T07:31:57.218Z,3.63
2022-09-05T07:34:30.050Z,3.33
2022-09-05T07:37:15.303Z,3.80
2022-09-05T07:39:49.927Z,4.07
2022-09-05T07:42:24.511Z,3.70
2022-09-05T07:44:56.618Z,3.90
2022-09-05T07:47:28.945Z,3.50
2022-09-05T07:50:32.492Z,3.43
2022-09-05T07:56:46.722Z,3.07
2022-09-05T07:57:12.724Z,2.80
2022-09-05T07:58:41.266Z,2.90
2022-09-05T08:01:12.699Z,2.77
2022-09-05T08:03:43.074Z,2.80
2022-09-05T08:06:18.403Z,3.17
2022-09-05T08:10:05.335Z,4.17
2022-09-05T08:12:09.380Z,3.87
2022-09-05T08:14:45.959Z,3.63
2022-09-05T08:17:18.169Z,3.07
2022-09-05T08:20:08.515Z,3.83
2022-09-05T08:22:52.478Z,4.43
2022-09-05T08:25:27.435Z,4.33
2022-09-05T08:28:16.552Z,3.77
2022-09-05T08:30:48.413Z,3.93
2022-09-05T08:33:22.466Z,4.23
2022-09-05T08:35:59.306Z,4.30
2022-09-05T08:38:40.455Z,4.27
2022-09-05T08:41:17.513Z,4.77
2022-09-05T08:46:36.246Z,4.67
2022-09-05T08:46:50.815Z,4.87
2022-09-05T08:49:44.003Z,4.33
2022-09-05T08:52:26.064Z,3.77
2022-09-05T08:55:07.842Z,3.70
2022-09-05T08:58:03.152Z,4.00
2022-09-05T09:00:36.841Z,4.10
2022-09-05T09:03:14.179Z,4.40
2022-09-05T09:06:16.142Z,3.93
2022-09-05T09:09:08.626Z,4.10
2022-09-05T09:11:42.632Z,4.50
2022-09-05T09:14:36.503Z,3.73
2022-09-05T09:17:20.392Z,5.00
2022-09-05T09:19:56.338Z,4.20
2022-09-05T09:22:39.170Z,4.53
2022-09-05T09:25:16.023Z,4.80
2022-09-05T09:28:43.732Z,4.57
2022-09-05T09:31:10.540Z,4.00
2022-09-05T09:33:43.104Z,3.90
2022-09-05T09:36:26.775Z,4.50
2022-09-05T09:39:21.571Z,4.23
2022-09-05T09:42:33.578Z,4.73
2022-09-05T09:45:41.491Z,4.23
2022-09-05T09:48:37.379Z,3.67
2022-09-05T09:51:19.870Z,3.63
2022-09-05T09:54:03.194Z,3.60
2022-09-05T09:56:50.563Z,3.67
2022-09-05T09:59:35.387Z,3.77
2022-09-05T10:05:18.246Z,3.85
2022-09-05T10:10:45.726Z,3.90
2022-09-05T10:10:56.273Z,4.22
2022-09-05T10:11:53.623Z,4.15
2022-09-05T10:14:49.341Z,3.95
2022-09-05T10:17:50.838Z,4.55
2022-09-05T10:20:36.026Z,3.72
2022-09-05T10:23:34.253Z,4.20
2022-09-05T10:26:43.170Z,3.72
2022-09-05T10:29:36.647Z,4.30
2022-09-05T10:35:08.324Z,3.67
2022-09-05T10:35:22.187Z,3.80
2022-09-05T10:37:57.628Z,3.83
2022-09-05T10:40:28.620Z,3.20
2022-09-05T10:43:02.484Z,3.25
2022-09-05T10:45:47.220Z,3.00
2022-09-05T10:48:23.954Z,3.40
2022-09-05T10:51:01.426Z,3.60
2022-09-05T10:53:40.242Z,3.42
2022-09-05T10:56:13.979Z,2.95
2022-09-05T11:01:33.404Z,3.30
2022-09-05T11:02:28.059Z,2.92
2022-09-05T11:04:52.282Z,2.95
2022-09-05T11:07:32.240Z,2.72
2022-09-05T11:10:08.146Z,3.63
2022-09-05T11:12:58.284Z,2.97
2022-09-05T11:15:34.066Z,2.75
2022-09-05T11:18:04.937Z,3.53
2022-09-05T11:20:45.345Z,3.10
2022-09-05T11:23:21.270Z,3.03
2022-09-05T11:25:57.484Z,3.20
2022-09-05T11:28:36.916Z,2.85
2022-09-05T11:31:12.754Z,2.80
2022-09-05T11:39:48.085Z,2.33
2022-09-05T11:40:00.280Z,2.15
2022-09-05T11:40:28.721Z,3.40
2022-09-05T11:43:37.662Z,3.15
2022-09-05T11:46:23.873Z,2.60
2022-09-05T11:49:36.433Z,3.45
2022-09-05T11:52:41.499Z,2.85
2022-09-05T11:56:06.154Z,2.80
2022-09-05T11:59:10.401Z,2.80
2022-09-05T12:01:55.597Z,2.80
2022-09-05T12:05:48.992Z,2.72
2022-09-05T12:07:46.827Z,2.45
2022-09-05T12:10:46.935Z,2.80
2022-09-05T12:13:34.071Z,2.72
2022-09-05T12:16:10.318Z,2.70
2022-09-05T12:18:48.214Z,2.63
2022-09-05T12:21:31.665Z,3.00
2022-09-05T12:25:16.550Z,2.78
2022-09-05T12:27:43.733Z,2.53
2022-09-05T12:29:59.959Z,2.47
2022-09-05T12:33:33.854Z,2.58
2022-09-05T12:36:12.597Z,2.63
2022-09-05T12:40:57.991Z,2.50
2022-09-05T12:41:40.699Z,2.58
2022-09-05T12:44:42.679Z,2.55
2022-09-05T12:47:16.687Z,2.42
2022-09-05T12:49:54.246Z,2.30
2022-09-05T12:52:42.773Z,2.20
2022-09-05T12:55:19.459Z,2.72
2022-09-05T13:02:45.317Z,2.72
2022-09-05T13:03:01.533Z,2.38
2022-09-05T13:03:59.435Z,2.38
2022-09-05T13:06:30.198Z,2.33
2022-09-05T13:09:03.926Z,1.95
2022-09-05T13:14:47.274Z,1.90
2022-09-05T13:15:07.657Z,1.92
2022-09-05T13:17:44.473Z,2.17
2022-09-05T13:20:19.045Z,2.38
2022-09-05T13:22:50.555Z,1.73
2022-09-05T13:25:27.014Z,1.80
2022-09-05T13:28:02.249Z,2.20
2022-09-05T13:31:51.072Z,1.80
2022-09-05T13:37:59.036Z,2.03
2022-09-05T13:38:07.748Z,1.60
2022-09-05T13:39:13.451Z,2.22
2022-09-05T13:41:45.425Z,2.35
2022-09-05T13:44:27.601Z,2.40
2022-09-05T13:47:00.945Z,2.15
2022-09-05T13:49:37.186Z,1.80
2022-09-05T13:52:26.244Z,1.80
2022-09-05T13:55:18.780Z,2.50
2022-09-05T13:57:49.836Z,2.00
2022-09-05T14:00:54.279Z,1.80
2022-09-05T14:03:43.848Z,1.85
2022-09-05T14:06:47.666Z,1.70
2022-09-05T14:09:38.383Z,1.85
2022-09-05T14:12:15.567Z,1.70
2022-09-05T14:17:58.285Z,1.80
2022-09-05T14:21:02.349Z,1.88
2022-09-05T14:23:53.564Z,1.60
2022-09-05T14:26:28.227Z,2.10
2022-09-05T14:29:16.105Z,1.95
2022-09-05T14:37:39.114Z,1.90
2022-09-05T14:38:01.677Z,1.60
2022-09-05T14:38:25.305Z,1.92
2022-09-05T14:41:30.833Z,1.70
2022-09-05T14:44:37.890Z,2.03
2022-09-05T14:47:47.420Z,2.28
2022-09-05T14:50:40.483Z,2.05
2022-09-05T14:58:53.722Z,2.08
2022-09-05T15:02:49.441Z,1.88
2022-09-05T15:02:54.611Z,1.85
2022-09-05T15:05:19.913Z,1.77
2022-09-05T15:07:49.628Z,2.17
2022-09-05T15:12:21.593Z,2.17
2022-09-05T15:13:25.645Z,1.95
2022-09-05T15:16:02.611Z,2.35
2022-09-05T15:18:33.959Z,2.90
2022-09-05T15:21:33.243Z,2.30
2022-09-05T15:24:13.651Z,2.40
2022-09-05T15:26:52.605Z,2.38
2022-09-05T15:29:23.207Z,2.33
2022-09-05T15:31:59.412Z,2.05
2022-09-05T15:34:39.097Z,2.47
2022-09-05T15:37:23.616Z,2.03
2022-09-05T15:40:02.382Z,1.90
2022-09-05T15:42:32.945Z,1.90
2022-09-05T15:45:10.770Z,1.77
2022-09-05T15:47:47.416Z,2.05
2022-09-05T15:50:22.618Z,1.77
2022-09-05T15:52:55.793Z,1.73
2022-09-05T15:55:26.367Z,2.00
2022-09-05T15:57:56.427Z,2.20
2022-09-05T16:00:51.275Z,2.00
2022-09-05T16:05:06.689Z,1.98
2022-09-05T16:10:35.150Z,2.13
2022-09-05T16:10:44.976Z,1.95
2022-09-05T16:12:18.877Z,2.10
2022-09-05T16:16:29.907Z,2.20
2022-09-05T16:23:27.189Z,2.40
2022-09-05T16:23:34.923Z,2.40
2022-09-05T16:23:46.822Z,2.30
2022-09-05T16:26:19.100Z,2.45
2022-09-05T16:31:58.955Z,2.00
2022-09-05T16:34:35.232Z,2.03
2022-09-05T16:37:09.295Z,1.67
2022-09-05T16:39:41.598Z,1.65
2022-09-05T16:42:18.094Z,1.80
2022-09-05T16:44:52.227Z,1.80
2022-09-05T16:47:25.570Z,1.92
2022-09-05T16:50:00.667Z,1.40
2022-09-05T16:52:37.831Z,1.83
2022-09-05T16:55:12.810Z,2.13
2022-09-05T16:57:45.078Z,2.38
2022-09-05T17:00:16.743Z,1.70
2022-09-05T17:02:53.496Z,2.10
2022-09-05T17:05:28.957Z,2.00
2022-09-05T17:08:04.731Z,1.90
2022-09-05T17:10:36.089Z,2.00
2022-09-05T17:13:06.853Z,1.70
2022-09-05T17:15:37.174Z,1.90
2022-09-05T17:18:22.542Z,1.92
2022-09-05T17:20:55.186Z,1.67
2022-09-05T17:29:15.848Z,1.70
2022-09-05T17:29:25.566Z,1.92
2022-09-05T17:32:41.767Z,1.83
2022-09-05T17:35:26.164Z,1.90
2022-09-05T17:38:16.607Z,1.67
2022-09-05T17:41:13.266Z,1.90
2022-09-05T17:43:42.448Z,1.65
2022-09-05T17:46:20.134Z,1.90
2022-09-05T17:49:17.743Z,1.70
2022-09-05T17:52:17.384Z,1.60
2022-09-05T17:54:50.219Z,1.50
2022-09-05T17:57:37.669Z,1.70
2022-09-05T18:00:47.392Z,1.92
2022-09-05T18:04:17.241Z,1.80
2022-09-05T18:06:59.473Z,2.03
2022-09-05T18:10:12.292Z,2.17
2022-09-05T18:13:12.888Z,1.50
2022-09-05T18:16:04.326Z,1.90
2022-09-05T18:19:28.177Z,1.90
2022-09-05T18:21:25.726Z,1.80
2022-09-05T18:24:02.141Z,1.88
2022-09-05T18:26:39.274Z,2.10
2022-09-05T18:29:15.879Z,1.73
2022-09-05T18:32:03.754Z,1.88
2022-09-05T18:34:45.077Z,1.73
2022-09-05T18:38:00.094Z,1.70
2022-09-05T18:40:40.639Z,2.00
2022-09-05T18:43:15.669Z,1.80
2022-09-05T18:45:52.856Z,1.60
2022-09-05T18:48:29.797Z,2.10
2022-09-05T18:51:13.377Z,1.80
2022-09-05T18:53:47.490Z,2.00
2022-09-05T18:56:27.362Z,2.10
2022-09-05T18:59:09.951Z,2.28
2022-09-05T19:01:43.673Z,2.22
2022-09-05T19:04:40.522Z,2.38
2022-09-05T19:07:09.113Z,2.28
2022-09-05T19:09:39.712Z,2.10
2022-09-05T19:12:32.889Z,2.35
2022-09-05T19:15:06.936Z,2.40
2022-09-05T19:17:39.347Z,2.63
2022-09-05T19:20:32.515Z,2.88
2022-09-05T19:23:11.179Z,3.05
2022-09-05T19:25:42.514Z,2.70
2022-09-05T19:35:33.270Z,2.17
2022-09-05T19:36:47.390Z,2.45
2022-09-05T19:36:53.762Z,2.50
2022-09-05T19:37:25.521Z,2.60
2022-09-05T19:44:12.477Z,2.97
2022-09-05T19:47:48.432Z,2.78
2022-09-05T19:47:51.482Z,2.60
2022-09-05T19:48:18.575Z,2.83
2022-09-05T19:50:48.613Z,2.63
2022-09-05T19:53:18.511Z,2.40
2022-09-05T19:55:46.914Z,2.22
2022-09-05T19:58:19.015Z,2.60
2022-09-05T20:01:00.905Z,2.90
2022-09-05T20:03:38.432Z,2.70
2022-09-05T20:06:30.608Z,2.75
2022-09-05T20:09:10.715Z,3.00
2022-09-05T20:11:46.114Z,2.85
2022-09-05T20:14:20.164Z,2.60
2022-09-05T20:16:49.963Z,2.70
2022-09-05T20:19:30.890Z,2.70
2022-09-05T20:22:18.805Z,2.60
2022-09-05T20:24:55.739Z,2.53
2022-09-05T20:27:28.591Z,2.22
2022-09-05T20:29:59.917Z,2.83
2022-09-05T20:32:39.384Z,2.80
2022-09-05T20:40:19.300Z,3.20
2022-09-05T20:43:23.649Z,2.80
2022-09-05T20:43:24.418Z,3.00
2022-09-05T20:43:54.638Z,2.42
2022-09-05T20:49:49.854Z,2.70
2022-09-05T20:54:08.877Z,3.10
2022-09-05T20:54:14.520Z,2.75
2022-09-05T20:55:38.293Z,2.53
2022-09-05T20:58:11.789Z,2.45
2022-09-05T21:01:15.392Z,2.67
2022-09-05T21:03:34.702Z,2.40
2022-09-05T21:06:11.718Z,2.53
2022-09-05T21:08:39.685Z,2.27
2022-09-05T21:11:08.996Z,2.22
2022-09-05T21:13:48.821Z,2.17
2022-09-05T21:16:23.441Z,2.05
2022-09-05T21:18:52.539Z,1.77
2022-09-05T21:21:28.564Z,2.08
2022-09-05T21:24:23.405Z,1.77
2022-09-05T21:26:52.501Z,1.52
2022-09-05T21:29:32.246Z,1.85
2022-09-05T21:32:05.584Z,1.73
2022-09-05T21:34:45.190Z,2.20
2022-09-05T21:37:16.058Z,2.07
2022-09-05T21:39:57.128Z,2.17
2022-09-05T21:46:31.686Z,2.07
2022-09-05T21:47:38.727Z,1.80
2022-09-05T21:48:07.685Z,1.57
2022-09-05T21:50:40.368Z,1.57
2022-09-05T21:55:01.178Z,1.87
2022-09-05T21:59:17.034Z,1.70
2022-09-05T21:59:27.323Z,1.57
2022-09-05T22:01:53.332Z,1.70
2022-09-05T22:04:22.434Z,1.87
2022-09-05T22:06:53.143Z,1.77
2022-09-05T22:09:22.353Z,1.70
2022-09-05T22:11:51.443Z,1.63
2022-09-05T22:14:23.694Z,1.57
2022-09-05T22:16:54.329Z,1.73
2022-09-05T22:19:37.165Z,1.60
2022-09-05T22:22:15.665Z,1.83
2022-09-05T22:24:47.882Z,1.70
2022-09-05T22:27:19.975Z,1.50
2022-09-05T22:29:50.485Z,1.40
2022-09-05T22:32:32.401Z,1.60
2022-09-05T22:35:26.997Z,1.50
2022-09-05T22:37:59.173Z,1.70
2022-09-05T22:40:28.117Z,1.80
2022-09-05T22:42:56.793Z,1.60
2022-09-05T22:45:26.129Z,1.80
2022-09-05T22:47:54.202Z,1.97
2022-09-05T22:50:23.066Z,1.63
2022-09-05T22:52:51.099Z,1.70
2022-09-05T22:55:19.276Z,1.80
2022-09-05T22:57:47.261Z,1.77
2022-09-05T23:00:15.912Z,1.90
2022-09-05T23:02:48.950Z,1.90
2022-09-05T23:05:19.481Z,1.70
2022-09-05T23:07:47.221Z,1.60
2022-09-05T23:10:15.506Z,1.70
2022-09-05T23:12:43.218Z,1.80
2022-09-05T23:15:11.670Z,1.60
2022-09-05T23:17:39.413Z,1.70
2022-09-05T23:20:10.505Z,1.90
2022-09-05T23:22:39.024Z,1.97
2022-09-05T23:25:08.163Z,1.57
2022-09-05T23:27:36.757Z,1.50
2022-09-05T23:30:05.831Z,1.53
2022-09-05T23:32:33.539Z,1.60
2022-09-05T23:35:01.767Z,1.40
2022-09-05T23:37:30.809Z,1.40
2022-09-05T23:39:58.591Z,1.43
2022-09-05T23:42:26.357Z,1.60
2022-09-05T23:44:54.230Z,1.50
2022-09-05T23:47:21.905Z,1.80
2022-09-05T23:49:49.597Z,1.90
2022-09-05T23:52:17.347Z,1.73
2022-09-05T23:54:46.364Z,1.70
2022-09-05T23:57:14.166Z,1.60
2022-09-05T23:59:41.852Z,1.50
